Time;durP1;ratioP1;P1;durP2;ratioP2;P2;SDS_P1;SDS_P2;PMS_P1;PMS_P2;Temp;Humidity;BMP_temperature;BMP_pressure;BME280_temperature;BME280_humidity;BME280_pressure;Samples;Min_cycle;Max_cycle;Signal;HPM_P1;HPM_P2
2023/03/14 00:00:56;;;;;;;20.73;4.28;;;11.40;99.90;;;;;;6152877;23;20017;-88
2023/03/14 00:03:22;;;;;;;15.50;3.60;;;11.50;99.90;;;;;;6152475;23;20469;-88
2023/03/14 00:05:54;;;;;;;20.92;3.83;;;11.50;99.90;;;;;;5129641;27;20412;-87
2023/03/14 00:08:21;;;;;;;20.98;4.70;;;11.50;99.90;;;;;;5128778;28;20043;-86
2023/03/14 00:10:46;;;;;;;20.48;4.28;;;11.50;99.90;;;;;;5109672;28;20032;-87
2023/03/14 00:13:12;;;;;;;18.00;3.95;;;11.50;99.90;;;;;;5107819;28;20044;-86
2023/03/14 00:15:38;;;;;;;16.98;4.28;;;11.60;99.90;;;;;;5107651;28;20746;-88
2023/03/14 00:18:03;;;;;;;19.35;3.83;;;11.50;99.90;;;;;;5090275;28;20046;-87
2023/03/14 00:20:29;;;;;;;16.00;3.35;;;11.50;99.90;;;;;;5091184;28;20042;-88
2023/03/14 00:22:54;;;;;;;17.77;4.60;;;11.40;99.90;;;;;;5107625;28;20066;-87
2023/03/14 00:25:20;;;;;;;16.67;3.92;;;11.40;99.90;;;;;;5108446;28;20277;-87
2023/03/14 00:27:45;;;;;;;18.08;4.00;;;11.30;99.90;;;;;;5107736;28;20039;-87
2023/03/14 00:30:11;;;;;;;18.08;5.45;;;11.20;99.90;;;;;;5090834;28;20585;-88
2023/03/14 00:32:37;;;;;;;14.13;4.70;;;11.10;99.90;;;;;;5107855;28;20043;-88
2023/03/14 00:35:04;;;;;;;17.13;4.68;;;11.00;99.90;;;;;;5090737;28;20408;-89
2023/03/14 00:37:29;;;;;;;14.65;3.97;;;11.00;99.90;;;;;;5091137;28;20089;-89
2023/03/14 00:39:55;;;;;;;18.40;4.40;;;11.00;99.90;;;;;;5090388;28;20487;-89
2023/03/14 00:42:20;;;;;;;16.20;4.10;;;10.90;99.90;;;;;;5107625;28;20044;-88
2023/03/14 00:44:46;;;;;;;15.80;4.03;;;10.90;99.90;;;;;;5090094;28;20079;-89
2023/03/14 00:47:14;;;;;;;16.48;5.05;;;10.80;99.90;;;;;;5107981;28;20492;-88
2023/03/14 00:49:43;;;;;;;18.95;4.53;;;10.80;99.90;;;;;;5090945;28;20032;-89
2023/03/14 00:52:09;;;;;;;14.57;3.90;;;10.80;99.90;;;;;;5107513;28;20504;-88
2023/03/14 00:54:34;;;;;;;13.05;4.13;;;10.80;99.90;;;;;;5090838;28;20497;-89
2023/03/14 00:57:00;;;;;;;15.25;4.70;;;10.70;99.90;;;;;;5107459;28;20097;-88
2023/03/14 00:59:25;;;;;;;11.35;3.33;;;10.70;99.90;;;;;;5090446;28;20623;-88
2023/03/14 01:01:51;;;;;;;14.02;4.30;;;10.70;99.90;;;;;;5090691;28;20504;-88
2023/03/14 01:04:17;;;;;;;6.78;1.70;;;10.70;99.90;;;;;;5107094;28;20074;-90
2023/03/14 01:06:42;;;;;;;10.32;2.13;;;10.60;99.90;;;;;;5106876;28;20034;-90
2023/03/14 01:09:08;;;;;;;8.77;2.20;;;10.50;99.90;;;;;;5090677;28;20550;-89
2023/03/14 01:11:35;;;;;;;11.60;2.60;;;10.40;99.90;;;;;;5106956;28;20591;-89
2023/03/14 01:14:02;;;;;;;9.60;2.30;;;10.30;99.90;;;;;;5107478;28;20035;-89
2023/03/14 01:16:30;;;;;;;10.50;2.10;;;10.20;99.90;;;;;;5081024;28;20076;-89
2023/03/14 01:18:56;;;;;;;12.48;2.92;;;10.10;99.90;;;;;;5076627;28;20064;-89
2023/03/14 01:21:28;;;;;;;12.63;3.30;;;10.20;99.90;;;;;;5076574;28;20063;-90
2023/03/14 01:23:55;;;;;;;13.80;3.17;;;10.10;99.90;;;;;;5093704;28;20091;-90
2023/03/14 01:26:23;;;;;;;17.33;3.60;;;10.10;99.90;;;;;;5093602;28;20813;-90
2023/03/14 01:28:50;;;;;;;15.55;4.53;;;10.10;99.90;;;;;;5092985;28;20561;-90
2023/03/14 01:31:17;;;;;;;18.45;4.28;;;10.10;99.90;;;;;;5076402;28;20077;-90
2023/03/14 01:33:43;;;;;;;12.70;3.38;;;10.20;99.90;;;;;;5076620;28;20032;-90
2023/03/14 01:36:10;;;;;;;11.77;3.78;;;10.20;99.90;;;;;;5091964;28;20040;-90
2023/03/14 01:38:38;;;;;;;8.65;3.15;;;10.20;99.90;;;;;;5092508;28;20040;-89
2023/03/14 01:41:04;;;;;;;13.63;3.72;;;10.30;99.90;;;;;;5092556;28;20032;-89
2023/03/14 01:43:30;;;;;;;12.65;3.55;;;10.20;99.90;;;;;;5076267;28;20086;-89
2023/03/14 01:46:05;;;;;;;11.82;3.10;;;10.20;99.90;;;;;;5093524;28;20370;-90
2023/03/14 01:48:55;;;;;;;13.07;3.38;;;10.20;99.90;;;;;;5091699;28;20047;-89
2023/03/14 01:51:59;;;;;;;14.40;3.25;;;10.30;99.90;;;;;;5093125;28;20036;-89
2023/03/14 01:54:41;;;;;;;9.13;2.42;;;10.20;99.90;;;;;;5087909;28;20048;-90
2023/03/14 01:57:10;;;;;;;14.13;3.10;;;10.20;99.90;;;;;;5075784;28;20048;-90
2023/03/14 01:59:38;;;;;;;13.07;3.42;;;10.20;99.90;;;;;;5075837;28;20129;-90
2023/03/14 02:02:07;;;;;;;10.80;3.30;;;10.20;99.90;;;;;;5092360;28;20076;-90
2023/03/14 02:04:35;;;;;;;12.52;3.13;;;10.30;99.90;;;;;;5092370;28;20044;-90
2023/03/14 02:07:07;;;;;;;10.75;2.42;;;10.40;99.90;;;;;;5090356;28;20040;-90
2023/03/14 02:09:32;;;;;;;15.85;3.53;;;10.50;99.90;;;;;;5074891;28;20477;-89
2023/03/14 02:11:58;;;;;;;18.95;3.65;;;10.40;99.90;;;;;;5091942;28;20070;-89
2023/03/14 02:14:34;;;;;;;16.90;3.08;;;10.40;99.90;;;;;;5091755;28;20054;-89
2023/03/14 02:17:02;;;;;;;11.95;2.90;;;10.40;99.90;;;;;;5074896;28;20043;-89
2023/03/14 02:20:07;;;;;;;12.90;2.95;;;10.40;99.90;;;;;;5074913;28;20040;-89
2023/03/14 02:22:34;;;;;;;9.38;2.92;;;10.40;99.90;;;;;;5092283;28;20050;-89
2023/03/14 02:25:12;;;;;;;12.10;3.08;;;10.40;99.90;;;;;;5074368;28;20071;-90
2023/03/14 02:27:38;;;;;;;10.25;2.20;;;10.40;99.90;;;;;;5074088;28;20512;-89
2023/03/14 02:30:14;;;;;;;10.15;2.75;;;10.40;99.90;;;;;;5075061;28;20420;-89
2023/03/14 02:32:44;;;;;;;10.15;2.40;;;10.40;99.90;;;;;;5075407;28;20492;-89
2023/03/14 02:35:14;;;;;;;12.73;2.03;;;10.40;99.90;;;;;;5074126;28;20520;-90
2023/03/14 02:38:15;;;;;;;8.73;1.67;;;10.40;99.90;;;;;;5075033;28;20097;-89
2023/03/14 02:40:41;;;;;;;11.10;1.92;;;10.40;99.90;;;;;;5070387;28;20054;-89
2023/03/14 02:43:07;;;;;;;8.40;2.00;;;10.50;99.90;;;;;;5074636;28;20428;-89
2023/03/14 02:45:41;;;;;;;8.90;2.35;;;10.40;99.90;;;;;;5075249;28;20058;-89
2023/03/14 02:48:18;;;;;;;11.85;2.08;;;10.40;99.90;;;;;;5091551;28;20397;-89
2023/03/14 02:50:46;;;;;;;8.68;2.17;;;10.40;99.90;;;;;;5074019;28;20412;-89
2023/03/14 02:53:16;;;;;;;7.10;1.63;;;10.40;99.90;;;;;;5091622;28;20489;-89
2023/03/14 02:55:46;;;;;;;8.38;1.77;;;10.40;99.90;;;;;;5082354;28;20048;-89
2023/03/14 02:58:12;;;;;;;6.75;1.95;;;10.40;99.90;;;;;;5074403;28;20032;-89
2023/03/14 03:00:37;;;;;;;8.48;1.95;;;10.30;99.90;;;;;;5090195;28;20043;-89
2023/03/14 03:03:05;;;;;;;9.27;2.72;;;10.30;99.90;;;;;;5074998;28;20058;-89
2023/03/14 03:05:31;;;;;;;8.40;2.53;;;10.20;99.90;;;;;;5090458;28;20036;-89
2023/03/14 03:07:57;;;;;;;11.05;2.90;;;10.20;99.90;;;;;;5091005;28;20505;-89
2023/03/14 03:10:23;;;;;;;9.43;2.33;;;10.10;99.90;;;;;;5074750;28;20051;-88
2023/03/14 03:12:48;;;;;;;10.45;2.28;;;10.10;99.90;;;;;;5090961;28;20048;-89
2023/03/14 03:15:14;;;;;;;7.05;1.98;;;10.10;99.90;;;;;;5074727;28;20048;-89
2023/03/14 03:17:42;;;;;;;9.18;2.13;;;10.10;99.90;;;;;;5091446;28;20459;-89
2023/03/14 03:20:09;;;;;;;11.48;2.40;;;10.10;99.90;;;;;;5091171;28;20040;-89
2023/03/14 03:22:35;;;;;;;8.30;1.85;;;10.00;99.90;;;;;;5074381;28;20570;-89
2023/03/14 03:25:02;;;;;;;10.50;2.38;;;10.00;99.90;;;;;;5090682;28;20405;-89
2023/03/14 03:27:31;;;;;;;8.55;1.90;;;10.00;99.90;;;;;;5074383;28;20043;-89
2023/03/14 03:29:57;;;;;;;8.60;2.38;;;10.00;99.90;;;;;;5091309;28;20040;-89
2023/03/14 03:32:22;;;;;;;8.30;2.40;;;9.90;99.90;;;;;;5090597;28;20036;-89
2023/03/14 03:34:48;;;;;;;9.35;2.65;;;9.90;99.90;;;;;;5074651;28;20039;-89
2023/03/14 03:37:14;;;;;;;10.98;2.45;;;9.90;99.90;;;;;;5073555;28;20477;-89
2023/03/14 03:39:39;;;;;;;10.07;2.05;;;9.90;99.90;;;;;;5090844;28;20032;-89
2023/03/14 03:42:05;;;;;;;12.20;3.40;;;9.80;99.90;;;;;;5073978;28;20501;-89
2023/03/14 03:44:30;;;;;;;13.48;2.65;;;9.80;99.90;;;;;;5073336;28;20044;-88
2023/03/14 03:46:56;;;;;;;11.43;2.63;;;9.80;99.90;;;;;;5090716;28;20401;-88
2023/03/14 03:49:22;;;;;;;9.70;2.20;;;9.80;99.90;;;;;;5073934;28;20036;-89
2023/03/14 03:51:47;;;;;;;10.95;2.85;;;9.80;99.90;;;;;;5090527;28;20040;-89
2023/03/14 03:54:13;;;;;;;9.05;2.33;;;9.80;99.90;;;;;;5091247;28;20127;-89
2023/03/14 03:56:39;;;;;;;10.68;2.30;;;9.80;99.90;;;;;;5073434;28;20051;-89
2023/03/14 03:59:04;;;;;;;12.90;2.33;;;9.80;99.90;;;;;;5090921;28;20048;-88
2023/03/14 04:01:30;;;;;;;8.73;1.75;;;9.80;99.90;;;;;;5090773;28;20040;-89
2023/03/14 04:03:55;;;;;;;12.73;2.38;;;9.80;99.90;;;;;;5090246;28;20459;-88
2023/03/14 04:06:21;;;;;;;9.48;1.75;;;9.80;99.90;;;;;;5089953;28;20497;-88
2023/03/14 04:08:46;;;;;;;11.82;2.33;;;9.80;99.90;;;;;;5090458;28;20032;-89
2023/03/14 04:11:12;;;;;;;10.95;3.20;;;9.80;99.90;;;;;;5090678;28;20028;-89
2023/03/14 04:13:38;;;;;;;8.02;1.92;;;9.80;99.90;;;;;;5090349;28;20081;-89
2023/03/14 04:16:09;;;;;;;11.55;1.92;;;9.80;99.90;;;;;;5074179;28;20105;-89
2023/03/14 04:18:34;;;;;;;7.28;2.10;;;9.80;99.90;;;;;;5073776;28;20040;-89
2023/03/14 04:21:00;;;;;;;9.55;2.38;;;9.70;99.90;;;;;;5072807;28;20404;-89
2023/03/14 04:23:25;;;;;;;10.80;2.42;;;9.80;99.90;;;;;;5090731;28;20047;-89
2023/03/14 04:25:51;;;;;;;9.07;2.35;;;9.70;99.90;;;;;;5090387;28;20040;-89
2023/03/14 04:28:17;;;;;;;8.48;2.42;;;9.70;99.90;;;;;;5089740;28;20072;-89
2023/03/14 04:30:43;;;;;;;11.70;2.30;;;9.70;99.90;;;;;;5090869;28;20083;-91
2023/03/14 04:33:09;;;;;;;9.95;2.50;;;9.70;99.90;;;;;;5073532;28;20028;-91
2023/03/14 04:35:35;;;;;;;11.52;3.13;;;9.70;99.90;;;;;;5090117;28;20043;-89
2023/03/14 04:38:00;;;;;;;8.45;2.70;;;9.70;99.90;;;;;;5090409;28;20040;-89
2023/03/14 04:40:26;;;;;;;11.02;2.92;;;9.70;99.90;;;;;;5073095;28;20051;-89
2023/03/14 04:42:52;;;;;;;8.15;2.42;;;9.70;99.90;;;;;;5090426;28;20408;-88
2023/03/14 04:45:17;;;;;;;10.52;2.95;;;9.70;99.90;;;;;;5090596;28;20044;-89
2023/03/14 04:47:43;;;;;;;12.10;3.55;;;9.70;99.90;;;;;;5090422;28;20032;-89
2023/03/14 04:50:10;;;;;;;12.88;3.92;;;9.70;99.90;;;;;;5073485;28;20043;-89
2023/03/14 04:52:36;;;;;;;11.57;3.08;;;9.70;99.90;;;;;;5093885;28;20032;-89
2023/03/14 04:55:02;;;;;;;10.98;3.28;;;9.70;99.90;;;;;;5093340;28;20511;-89
2023/03/14 04:57:27;;;;;;;11.27;2.65;;;9.70;99.90;;;;;;5093170;28;20489;-89
2023/03/14 04:59:53;;;;;;;9.63;3.00;;;9.70;99.90;;;;;;5093419;28;20046;-89
2023/03/14 05:02:19;;;;;;;7.40;2.33;;;9.70;99.90;;;;;;5093820;28;20032;-89
2023/03/14 05:04:44;;;;;;;6.65;2.05;;;9.70;99.90;;;;;;5093389;28;20046;-89
2023/03/14 05:07:10;;;;;;;11.60;3.17;;;9.70;99.90;;;;;;5093949;28;20036;-89
2023/03/14 05:09:35;;;;;;;7.95;2.70;;;9.70;99.90;;;;;;5093477;28;20165;-89
2023/03/14 05:12:01;;;;;;;10.05;2.53;;;9.70;99.90;;;;;;5093635;28;20043;-89
2023/03/14 05:14:27;;;;;;;8.32;2.63;;;9.70;99.90;;;;;;5093957;28;20040;-89
2023/03/14 05:16:52;;;;;;;8.02;2.38;;;9.70;99.90;;;;;;5076468;28;20044;-89
2023/03/14 05:19:18;;;;;;;8.23;2.92;;;9.70;99.90;;;;;;5076615;28;20036;-88
2023/03/14 05:21:43;;;;;;;10.82;3.38;;;9.70;99.90;;;;;;5076993;28;20044;-89
2023/03/14 05:24:09;;;;;;;7.50;2.88;;;9.60;99.90;;;;;;5076259;28;20040;-88
2023/03/14 05:26:34;;;;;;;10.52;2.85;;;9.60;99.90;;;;;;5092675;28;20127;-88
2023/03/14 05:29:00;;;;;;;9.73;3.28;;;9.60;99.90;;;;;;5092532;28;20035;-89
2023/03/14 05:31:26;;;;;;;10.38;2.92;;;9.60;99.90;;;;;;5093016;28;20545;-89
2023/03/14 05:33:51;;;;;;;9.98;2.78;;;9.60;99.90;;;;;;5076189;28;20038;-89
2023/03/14 05:36:17;;;;;;;15.80;3.13;;;9.60;99.90;;;;;;5093731;28;20119;-89
2023/03/14 05:38:43;;;;;;;10.80;2.35;;;9.60;99.90;;;;;;5094634;28;20047;-89
2023/03/14 05:41:08;;;;;;;12.27;3.10;;;9.60;99.90;;;;;;5077467;28;20032;-89
2023/03/14 05:43:34;;;;;;;12.40;2.88;;;9.60;99.90;;;;;;5077353;28;20508;-89
2023/03/14 05:45:59;;;;;;;7.95;2.65;;;9.60;99.90;;;;;;5077029;28;20105;-89
2023/03/14 05:48:25;;;;;;;12.02;2.58;;;9.60;99.90;;;;;;5091674;28;20040;-89
2023/03/14 05:50:59;;;;;;;11.52;2.63;;;9.60;99.90;;;;;;5093545;28;20059;-89
2023/03/14 05:53:25;;;;;;;13.10;2.80;;;9.60;99.90;;;;;;5076010;28;20031;-89
2023/03/14 05:55:52;;;;;;;12.00;3.65;;;9.60;99.90;;;;;;5092588;28;20123;-89
2023/03/14 05:58:18;;;;;;;13.07;2.60;;;9.60;99.90;;;;;;5075769;28;20047;-89
2023/03/14 06:00:44;;;;;;;9.77;2.60;;;9.60;99.90;;;;;;5092073;28;20513;-89
2023/03/14 06:03:09;;;;;;;11.82;2.55;;;9.70;99.90;;;;;;5092973;28;20127;-89
2023/03/14 06:05:35;;;;;;;14.27;2.67;;;9.70;99.90;;;;;;5092728;28;20468;-89
2023/03/14 06:08:01;;;;;;;10.95;2.33;;;9.70;99.90;;;;;;5075167;28;20071;-89
2023/03/14 06:10:26;;;;;;;10.40;2.55;;;9.70;99.90;;;;;;5092018;28;20028;-89
2023/03/14 06:12:52;;;;;;;13.00;2.63;;;9.80;99.90;;;;;;5088519;28;20124;-89
2023/03/14 06:15:17;;;;;;;9.93;2.08;;;9.80;99.90;;;;;;5103859;28;20401;-88
2023/03/14 06:17:43;;;;;;;12.13;2.08;;;9.80;99.90;;;;;;5074796;28;20409;-89
2023/03/14 06:20:10;;;;;;;14.52;2.40;;;9.80;99.90;;;;;;5091508;28;20105;-88
2023/03/14 06:22:35;;;;;;;11.77;2.33;;;9.80;99.90;;;;;;5092698;28;20036;-88
2023/03/14 06:25:01;;;;;;;11.60;2.63;;;9.80;99.90;;;;;;5074705;28;20063;-88
2023/03/14 06:27:27;;;;;;;13.18;3.25;;;9.80;99.90;;;;;;5091820;28;20118;-89
2023/03/14 06:29:52;;;;;;;11.88;2.92;;;9.80;99.90;;;;;;5091913;28;20504;-88
2023/03/14 06:32:18;;;;;;;14.23;3.35;;;9.80;99.90;;;;;;5074805;28;20400;-88
2023/03/14 06:34:44;;;;;;;11.07;3.75;;;9.70;99.90;;;;;;5091752;28;20084;-88
2023/03/14 06:37:09;;;;;;;9.77;2.95;;;9.70;99.90;;;;;;5066116;28;20051;-88
2023/03/14 06:39:35;;;;;;;16.00;3.63;;;9.70;99.90;;;;;;5091754;28;20085;-89
2023/03/14 06:42:00;;;;;;;10.20;3.33;;;9.70;99.90;;;;;;5091578;28;20119;-89
2023/03/14 06:44:26;;;;;;;10.30;3.15;;;9.70;99.90;;;;;;5092022;28;20047;-89
2023/03/14 06:46:52;;;;;;;10.15;2.83;;;9.80;99.90;;;;;;5091733;28;20089;-89
2023/03/14 06:49:17;;;;;;;9.48;2.15;;;9.80;99.90;;;;;;5074661;28;20039;-90
2023/03/14 06:51:43;;;;;;;8.05;2.13;;;9.70;99.90;;;;;;5065722;28;20481;-90
2023/03/14 06:54:08;;;;;;;9.65;2.08;;;9.80;99.90;;;;;;5107465;28;20036;-90
2023/03/14 06:56:34;;;;;;;11.25;2.97;;;9.80;99.90;;;;;;5074461;28;20044;-90
2023/03/14 06:59:00;;;;;;;12.25;2.90;;;9.80;99.90;;;;;;5074265;28;20470;-89
2023/03/14 07:01:28;;;;;;;11.90;3.40;;;9.70;99.90;;;;;;5090683;28;20093;-89
2023/03/14 07:03:54;;;;;;;8.00;3.50;;;9.70;99.90;;;;;;5090108;28;20512;-90
2023/03/14 07:06:20;;;;;;;14.15;3.47;;;9.80;99.90;;;;;;5108184;28;20085;-90
2023/03/14 07:08:45;;;;;;;9.52;2.65;;;9.80;99.90;;;;;;5108872;27;20044;-90
2023/03/14 07:11:12;;;;;;;8.18;2.80;;;9.80;99.90;;;;;;5091353;28;20481;-90
2023/03/14 07:13:38;;;;;;;12.70;3.40;;;9.80;99.90;;;;;;5073830;28;20122;-89
2023/03/14 07:16:05;;;;;;;11.50;2.70;;;9.80;99.90;;;;;;5073729;28;20050;-90
2023/03/14 07:18:31;;;;;;;11.10;2.58;;;9.80;99.90;;;;;;5090995;28;20036;-89
2023/03/14 07:20:56;;;;;;;11.30;2.97;;;9.80;99.90;;;;;;5073649;28;20104;-90
2023/03/14 07:23:22;;;;;;;13.05;3.60;;;9.80;99.90;;;;;;5074151;28;20043;-89
2023/03/14 07:25:47;;;;;;;8.32;2.78;;;9.80;99.90;;;;;;5091485;28;20040;-89
2023/03/14 07:28:13;;;;;;;12.02;2.88;;;9.80;99.90;;;;;;5073392;28;20032;-89
2023/03/14 07:30:39;;;;;;;9.52;2.38;;;9.80;99.90;;;;;;5091469;28;20040;-89
2023/03/14 07:33:04;;;;;;;10.25;2.20;;;9.80;99.90;;;;;;5091217;28;20068;-90
2023/03/14 07:35:30;;;;;;;8.85;2.78;;;9.80;99.90;;;;;;5073059;28;20119;-89
2023/03/14 07:37:55;;;;;;;2.55;1.00;;;9.70;99.90;;;;;;5090520;28;20515;-90
2023/03/14 07:40:21;;;;;;;6.25;0.93;;;9.50;99.90;;;;;;5073519;28;20093;-89
2023/03/14 07:42:46;;;;;;;5.28;1.60;;;9.40;99.90;;;;;;5091176;28;20036;-89
2023/03/14 07:45:12;;;;;;;2.85;1.10;;;9.30;99.90;;;;;;5090048;28;20036;-89
2023/03/14 07:47:38;;;;;;;4.22;1.10;;;9.20;99.90;;;;;;5074003;28;20040;-88
2023/03/14 07:50:05;;;;;;;4.75;1.30;;;9.10;99.90;;;;;;5091324;28;20047;-90
2023/03/14 07:52:30;;;;;;;6.68;1.30;;;9.10;99.90;;;;;;5073547;28;20028;-89
2023/03/14 07:54:56;;;;;;;7.53;1.67;;;9.00;99.90;;;;;;5090857;28;20040;-90
2023/03/14 07:57:23;;;;;;;3.95;1.05;;;9.10;99.90;;;;;;5089107;28;20045;-90
2023/03/14 07:59:49;;;;;;;3.63;0.82;;;9.10;99.90;;;;;;5073427;28;20039;-89
2023/03/14 08:02:14;;;;;;;4.68;0.90;;;9.00;99.90;;;;;;5090384;28;20047;-89
2023/03/14 08:04:41;;;;;;;5.72;0.88;;;8.90;99.90;;;;;;5073358;28;20386;-89
2023/03/14 08:07:06;;;;;;;5.45;0.90;;;8.80;99.90;;;;;;5090841;28;20032;-89
2023/03/14 08:09:32;;;;;;;2.00;0.50;;;8.70;99.90;;;;;;5089840;28;20462;-91
2023/03/14 08:11:57;;;;;;;7.93;0.90;;;8.60;99.90;;;;;;5090503;28;20044;-90
2023/03/14 08:14:28;;;;;;;2.20;0.50;;;8.50;99.90;;;;;;5073332;28;20048;-90
2023/03/14 08:16:54;;;;;;;4.70;0.82;;;8.40;99.90;;;;;;5073008;28;20051;-90
2023/03/14 08:19:20;;;;;;;3.35;0.70;;;8.30;99.90;;;;;;5072505;28;20058;-89
2023/03/14 08:21:46;;;;;;;5.68;1.08;;;8.20;99.90;;;;;;5071252;28;20043;-88
2023/03/14 08:24:11;;;;;;;7.00;1.08;;;8.10;99.90;;;;;;5089039;28;20044;-89
2023/03/14 08:26:37;;;;;;;3.50;0.68;;;8.10;99.90;;;;;;5089303;28;20031;-89
2023/03/14 08:29:04;;;;;;;4.85;0.88;;;8.00;99.90;;;;;;5085395;28;20082;-89
2023/03/14 08:31:30;;;;;;;3.33;1.05;;;8.00;99.90;;;;;;5100486;28;20382;-88
2023/03/14 08:33:59;;;;;;;3.95;0.88;;;7.80;99.90;;;;;;5088901;28;20583;-89
2023/03/14 08:36:24;;;;;;;3.47;0.63;;;7.70;99.90;;;;;;5092735;28;20036;-89
2023/03/14 08:38:50;;;;;;;1.00;0.40;;;7.70;99.90;;;;;;5093571;28;20059;-88
2023/03/14 08:41:15;;;;;;;1.92;0.43;;;7.60;99.90;;;;;;5093084;28;20409;-88
2023/03/14 08:43:41;;;;;;;2.03;0.47;;;7.50;99.90;;;;;;5093124;28;20088;-88
2023/03/14 08:46:06;;;;;;;3.33;0.40;;;7.50;99.90;;;;;;5093280;28;20039;-89
2023/03/14 08:48:32;;;;;;;0.73;0.20;;;7.40;99.90;;;;;;5092626;28;20032;-88
2023/03/14 08:51:10;;;;;;;3.53;0.40;;;7.30;99.90;;;;;;5093295;28;20036;-88
2023/03/14 08:53:37;;;;;;;1.95;0.45;;;7.20;99.90;;;;;;5092497;28;20032;-89
2023/03/14 08:56:03;;;;;;;3.78;0.32;;;7.20;99.90;;;;;;5092393;28;20143;-88
2023/03/14 08:58:29;;;;;;;0.57;0.17;;;7.10;99.90;;;;;;5092221;28;20046;-89
2023/03/14 09:00:55;;;;;;;1.00;0.20;;;7.10;99.90;;;;;;5075429;28;20036;-89
2023/03/14 09:03:22;;;;;;;3.05;0.50;;;7.00;99.90;;;;;;5093408;28;20039;-89
2023/03/14 09:05:49;;;;;;;4.30;0.60;;;7.00;99.90;;;;;;5092329;28;20044;-88
2023/03/14 09:08:14;;;;;;;4.57;0.50;;;7.00;99.90;;;;;;5073682;28;20044;-89
2023/03/14 09:10:40;;;;;;;3.15;0.47;;;7.00;99.90;;;;;;5091297;28;20043;-89
2023/03/14 09:13:05;;;;;;;1.45;0.40;;;7.00;99.90;;;;;;5074164;28;20040;-88
2023/03/14 09:15:32;;;;;;;1.48;0.40;;;7.00;99.90;;;;;;5074630;28;20048;-89
2023/03/14 09:17:58;;;;;;;4.63;0.70;;;7.00;99.90;;;;;;5091744;28;20551;-89
2023/03/14 09:20:24;;;;;;;1.63;0.52;;;7.00;99.90;;;;;;5092544;28;20044;-89
2023/03/14 09:22:49;;;;;;;3.17;0.47;;;7.00;99.90;;;;;;5093087;28;20109;-89
2023/03/14 09:25:15;;;;;;;15.48;2.35;;;7.00;99.90;;;;;;5074682;28;20040;-89
2023/03/14 09:27:40;;;;;;;2.90;0.50;;;7.00;99.90;;;;;;5092783;28;20075;-89
2023/03/14 09:30:07;;;;;;;2.53;0.68;;;7.10;99.90;;;;;;5091825;28;20385;-89
2023/03/14 09:32:32;;;;;;;5.28;0.50;;;7.10;99.90;;;;;;5092253;28;20036;-89
2023/03/14 09:34:58;;;;;;;4.05;0.85;;;7.10;99.90;;;;;;5076016;28;20032;-88
2023/03/14 09:37:24;;;;;;;4.95;0.70;;;7.20;99.90;;;;;;5091174;28;20036;-89
2023/03/14 09:39:49;;;;;;;5.07;0.70;;;7.10;99.90;;;;;;5091922;28;20079;-89
2023/03/14 09:42:21;;;;;;;5.68;0.95;;;7.10;99.90;;;;;;5091225;28;20043;-89
2023/03/14 09:44:55;;;;;;;4.25;0.73;;;7.20;99.90;;;;;;5075563;28;20054;-89
2023/03/14 09:47:21;;;;;;;10.80;1.65;;;7.20;99.90;;;;;;5075093;28;20036;-89
2023/03/14 09:49:47;;;;;;;6.97;1.33;;;7.30;99.90;;;;;;5073868;28;20035;-89
2023/03/14 09:52:17;;;;;;;6.07;1.35;;;7.40;99.90;;;;;;5074947;28;20055;-89
2023/03/14 09:54:47;;;;;;;5.78;1.27;;;7.50;99.90;;;;;;5091517;28;20043;-89
2023/03/14 09:57:16;;;;;;;5.88;1.05;;;7.60;99.90;;;;;;5074810;28;20036;-89
2023/03/14 09:59:44;;;;;;;7.63;1.25;;;7.70;99.90;;;;;;5091516;28;20577;-89
2023/03/14 10:02:15;;;;;;;7.88;1.67;;;7.80;99.90;;;;;;5092255;28;20050;-89
2023/03/14 10:04:44;;;;;;;6.88;1.02;;;7.90;99.90;;;;;;5074033;28;20498;-88
2023/03/14 10:07:41;;;;;;;11.38;2.05;;;7.90;99.90;;;;;;5091140;28;20504;-89
2023/03/14 10:10:13;;;;;;;10.00;1.70;;;7.90;99.90;;;;;;5090950;28;20413;-89
2023/03/14 10:12:39;;;;;;;10.77;1.45;;;8.00;99.90;;;;;;5090792;28;20024;-89
2023/03/14 10:15:12;;;;;;;10.38;2.10;;;8.00;99.90;;;;;;5091637;28;20169;-90
2023/03/14 10:17:43;;;;;;;9.13;1.25;;;8.10;99.90;;;;;;5073938;28;20040;-88
2023/03/14 10:20:32;;;;;;;7.68;1.55;;;8.10;99.90;;;;;;5092177;28;20455;-89
2023/03/14 10:23:18;;;;;;;11.77;2.47;;;8.20;99.90;;;;;;5078621;28;20120;-89
2023/03/14 10:25:57;;;;;;;14.23;2.53;;;8.20;99.90;;;;;;5073781;28;20047;-90
2023/03/14 10:28:31;;;;;;;11.73;1.88;;;8.10;99.90;;;;;;5071860;28;20575;-89
2023/03/14 10:30:58;;;;;;;11.98;2.13;;;8.10;99.90;;;;;;5070940;28;20036;-89
2023/03/14 10:33:29;;;;;;;11.65;1.88;;;8.00;99.90;;;;;;5072252;28;20056;-89
2023/03/14 10:36:16;;;;;;;10.68;1.60;;;8.00;99.90;;;;;;5065579;28;20532;-89
2023/03/14 10:38:42;;;;;;;8.13;1.30;;;7.90;99.90;;;;;;5082979;28;20539;-90
2023/03/14 10:41:19;;;;;;;10.18;2.40;;;7.70;99.90;;;;;;5081753;28;20130;-89
2023/03/14 10:43:44;;;;;;;17.60;3.13;;;7.70;99.90;;;;;;5074909;28;20119;-89
2023/03/14 10:46:18;;;;;;;13.55;2.50;;;7.70;99.90;;;;;;5117009;27;20468;-89
2023/03/14 10:48:45;;;;;;;16.33;3.10;;;7.80;99.90;;;;;;5089933;28;20068;-89
2023/03/14 10:51:26;;;;;;;9.60;1.50;;;7.80;99.90;;;;;;5073087;28;20032;-89
2023/03/14 10:54:13;;;;;;;14.32;2.28;;;7.90;99.90;;;;;;5074240;28;20036;-90
2023/03/14 10:56:38;;;;;;;13.48;2.53;;;7.90;99.90;;;;;;5090665;28;20066;-89
2023/03/14 10:59:12;;;;;;;13.20;1.83;;;7.90;99.90;;;;;;5090202;28;20044;-89
2023/03/14 11:01:56;;;;;;;15.63;1.88;;;7.90;99.90;;;;;;5091294;28;20039;-89
2023/03/14 11:04:52;;;;;;;12.25;2.25;;;7.80;99.90;;;;;;5090372;28;20047;-88
2023/03/14 11:07:33;;;;;;;15.73;2.63;;;7.80;99.90;;;;;;5090843;28;20136;-88
2023/03/14 11:10:02;;;;;;;13.90;2.03;;;7.80;99.90;;;;;;5090811;28;20089;-89
2023/03/14 11:12:41;;;;;;;10.88;1.77;;;7.80;99.90;;;;;;5090520;28;20405;-88
2023/03/14 11:15:17;;;;;;;15.27;2.60;;;7.80;99.90;;;;;;5074292;28;20075;-87
2023/03/14 11:18:05;;;;;;;16.65;2.38;;;7.80;99.90;;;;;;5089759;28;20036;-88
2023/03/14 11:20:42;;;;;;;24.45;4.05;;;7.90;99.90;;;;;;5090303;28;20408;-88
2023/03/14 11:23:27;;;;;;;18.75;4.85;;;7.90;99.90;;;;;;5063882;28;20101;-89
2023/03/14 11:26:27;;;;;;;15.88;3.30;;;8.00;99.90;;;;;;5090544;28;20044;-90
2023/03/14 11:29:00;;;;;;;11.52;2.55;;;8.10;99.90;;;;;;5073210;28;20040;-89
2023/03/14 11:31:31;;;;;;;19.38;4.28;;;8.10;99.90;;;;;;5073469;28;20032;-89
2023/03/14 11:34:16;;;;;;;11.35;2.50;;;8.10;99.90;;;;;;5090560;28;20042;-89
2023/03/14 11:36:49;;;;;;;10.88;1.70;;;8.10;99.90;;;;;;5072879;28;20028;-88
2023/03/14 11:39:19;;;;;;;12.45;2.17;;;8.20;99.90;;;;;;5073216;28;20039;-89
2023/03/14 11:41:53;;;;;;;14.50;2.47;;;8.30;99.90;;;;;;5090403;28;20036;-89
2023/03/14 11:44:30;;;;;;;8.23;1.58;;;8.40;99.90;;;;;;5089862;28;20100;-89
2023/03/14 11:47:11;;;;;;;12.73;2.05;;;8.60;99.90;;;;;;5090711;28;20503;-89
2023/03/14 11:49:52;;;;;;;10.82;2.47;;;8.50;97.50;;;;;;5072674;28;20036;-90
2023/03/14 11:52:32;;;;;;;14.40;2.03;;;8.60;96.90;;;;;;5073479;28;20036;-89
2023/03/14 11:55:02;;;;;;;11.15;2.00;;;8.50;95.20;;;;;;5090183;28;20044;-89
2023/03/14 11:57:28;;;;;;;7.32;1.80;;;8.50;97.30;;;;;;5090029;28;20039;-90
2023/03/14 12:00:20;;;;;;;8.70;1.75;;;8.60;96.60;;;;;;5067988;28;20399;-88
2023/03/14 12:03:11;;;;;;;11.35;1.45;;;8.70;94.30;;;;;;5074271;28;20052;-87
2023/03/14 12:05:59;;;;;;;8.55;2.60;;;8.90;93.10;;;;;;5091539;28;20068;-89
2023/03/14 12:08:31;;;;;;;9.30;1.42;;;9.20;91.80;;;;;;5090774;28;20028;-90
2023/03/14 12:11:02;;;;;;;14.32;2.13;;;9.50;91.60;;;;;;5074068;28;20418;-89
2023/03/14 12:13:32;;;;;;;10.48;1.65;;;9.70;91.80;;;;;;5073566;28;20047;-89
2023/03/14 12:16:00;;;;;;;8.20;1.83;;;9.80;89.10;;;;;;5089771;28;20520;-88
2023/03/14 12:18:37;;;;;;;13.57;2.70;;;9.70;90.00;;;;;;5081593;28;20036;-88
2023/03/14 12:21:10;;;;;;;9.98;1.65;;;9.80;89.10;;;;;;5095476;28;20036;-89
2023/03/14 12:23:47;;;;;;;18.02;2.15;;;9.90;86.50;;;;;;5097984;28;20043;-88
2023/03/14 12:26:25;;;;;;;9.98;1.48;;;10.10;86.40;;;;;;5083085;28;20062;-89
2023/03/14 12:28:57;;;;;;;9.57;1.73;;;10.40;84.40;;;;;;5080847;28;20512;-89
2023/03/14 12:31:31;;;;;;;7.68;2.10;;;10.60;84.30;;;;;;5087024;28;20047;-89
2023/03/14 12:34:10;;;;;;;10.25;1.55;;;10.80;81.90;;;;;;5063575;28;20032;-90
2023/03/14 12:36:48;;;;;;;10.23;2.28;;;11.10;82.00;;;;;;5077493;28;20510;-89
2023/03/14 12:39:49;;;;;;;5.82;1.25;;;11.20;80.30;;;;;;5078824;28;20074;-89
2023/03/14 12:42:35;;;;;;;7.63;1.33;;;11.30;76.80;;;;;;5080527;28;20036;-89
2023/03/14 12:45:23;;;;;;;10.15;1.80;;;11.30;77.50;;;;;;5079775;28;20509;-90
2023/03/14 12:47:54;;;;;;;11.07;1.30;;;11.40;75.30;;;;;;5052774;28;20045;-89
2023/03/14 12:50:34;;;;;;;5.65;1.13;;;11.40;75.30;;;;;;5052490;28;20041;-89
2023/03/14 12:53:38;;;;;;;6.32;1.15;;;11.40;72.00;;;;;;5068877;28;20032;-90
2023/03/14 12:56:22;;;;;;;6.97;1.10;;;11.50;71.30;;;;;;5072578;28;20412;-90
2023/03/14 12:59:34;;;;;;;6.80;1.30;;;11.80;72.40;;;;;;5071901;28;20062;-90